Time;durP1;ratioP1;P1;durP2;ratioP2;P2;SDS_P1;SDS_P2;PMS_P1;PMS_P2;Temp;Humidity;BMP_temperature;BMP_pressure;BME280_temperature;BME280_humidity;BME280_pressure;Samples;Min_cycle;Max_cycle;Signal;HPM_P1;HPM_P2
2023/07/01 06:01:46;;;;;;;3.83;2.10;;;;;;;;;;10536846;22;20057;-84
2023/07/01 06:06:47;;;;;;;7.65;2.33;;;;;;;;;;10411943;28;20038;-84
2023/07/01 06:11:49;;;;;;;3.17;1.80;;;;;;;;;;10420535;28;20093;-84
2023/07/01 06:16:50;;;;;;;5.70;2.17;;;;;;;;;;10419799;28;20060;-85
2023/07/01 06:21:51;;;;;;;4.03;1.88;;;;;;;;;;10398604;28;20116;-85
2023/07/01 06:26:52;;;;;;;4.65;2.10;;;;;;;;;;10401598;28;20048;-86
2023/07/01 06:31:54;;;;;;;2.97;2.05;;;;;;;;;;10401888;28;20034;-85
2023/07/01 06:36:55;;;;;;;4.85;2.20;;;;;;;;;;10402717;28;20091;-85
2023/07/01 06:41:56;;;;;;;6.18;2.40;;;;;;;;;;10404735;28;20029;-84
2023/07/01 06:46:58;;;;;;;5.90;2.80;;;;;;;;;;10403554;28;20037;-84
2023/07/01 06:51:59;;;;;;;3.33;2.72;;;;;;;;;;10399571;28;20029;-84
2023/07/01 06:57:00;;;;;;;5.32;2.35;;;;;;;;;;10396807;28;20030;-83
2023/07/01 07:02:02;;;;;;;3.38;1.92;;;;;;;;;;10390690;28;20036;-83
2023/07/01 07:07:03;;;;;;;3.95;1.95;;;;;;;;;;10389029;28;20030;-85
2023/07/01 07:12:05;;;;;;;4.15;2.05;;;;;;;;;;10388377;28;20022;-85
2023/07/01 07:17:06;;;;;;;4.03;2.10;;;;;;;;;;10368803;28;20037;-84
2023/07/01 07:22:07;;;;;;;3.97;2.17;;;;;;;;;;10371572;28;20128;-84
2023/07/01 07:27:08;;;;;;;3.28;1.90;;;;;;;;;;10372732;28;20112;-85
2023/07/01 07:32:10;;;;;;;4.80;2.05;;;;;;;;;;10371513;28;20022;-85
2023/07/01 07:37:11;;;;;;;4.25;2.10;;;;;;;;;;10370220;28;20480;-85
2023/07/01 07:42:12;;;;;;;5.22;2.20;;;;;;;;;;10371079;28;20133;-85
2023/07/01 07:47:14;;;;;;;4.75;2.70;;;;;;;;;;10372081;28;20029;-83
2023/07/01 07:52:15;;;;;;;5.28;3.05;;;;;;;;;;10370220;28;20113;-84
2023/07/01 07:57:16;;;;;;;3.35;2.60;;;;;;;;;;10371291;28;20105;-84
2023/07/01 08:02:17;;;;;;;5.22;2.72;;;;;;;;;;10371941;28;20488;-85
2023/07/01 08:07:18;;;;;;;6.22;2.63;;;;;;;;;;10372134;28;20121;-85
2023/07/01 08:12:19;;;;;;;4.53;2.45;;;;;;;;;;10377487;28;20030;-85
2023/07/01 08:17:20;;;;;;;6.13;4.50;;;;;;;;;;10381246;28;20045;-84
2023/07/01 08:22:21;;;;;;;3.28;2.60;;;;;;;;;;10381585;28;20093;-85
2023/07/01 08:27:22;;;;;;;5.55;2.80;;;;;;;;;;10382550;28;20026;-84
2023/07/01 08:32:23;;;;;;;3.10;2.30;;;;;;;;;;10379279;28;20435;-84
2023/07/01 08:37:26;;;;;;;3.88;2.50;;;;;;;;;;10379061;28;20033;-85
2023/07/01 08:42:31;;;;;;;4.13;2.47;;;;;;;;;;10377419;28;20369;-84
2023/07/01 08:47:33;;;;;;;3.13;2.10;;;;;;;;;;10375501;28;20025;-85
2023/07/01 08:52:42;;;;;;;3.75;2.13;;;;;;;;;;10379017;28;20030;-83
2023/07/01 08:57:44;;;;;;;3.75;2.40;;;;;;;;;;10377016;28;20168;-83
2023/07/01 09:02:45;;;;;;;4.95;2.10;;;;;;;;;;10375627;28;20072;-83
2023/07/01 09:07:46;;;;;;;3.65;2.13;;;;;;;;;;10378367;28;20033;-83
2023/07/01 09:12:48;;;;;;;5.50;2.10;;;;;;;;;;10378910;28;20037;-83
2023/07/01 09:17:49;;;;;;;4.97;2.05;;;;;;;;;;10381536;28;20053;-83
2023/07/01 09:23:01;;;;;;;4.00;2.22;;;;;;;;;;10380943;28;20030;-84
2023/07/01 09:28:02;;;;;;;5.07;3.00;;;;;;;;;;10379203;28;20030;-84
2023/07/01 09:33:11;;;;;;;5.05;2.78;;;;;;;;;;10383214;28;20061;-83
2023/07/01 09:38:13;;;;;;;5.60;2.67;;;;;;;;;;10399683;28;20033;-84
2023/07/01 09:43:14;;;;;;;4.63;2.47;;;;;;;;;;10379011;28;20026;-84
2023/07/01 09:48:18;;;;;;;2.90;2.30;;;;;;;;;;10381856;28;20034;-84
2023/07/01 09:53:20;;;;;;;4.13;2.10;;;;;;;;;;10378335;28;20018;-84
2023/07/01 09:58:22;;;;;;;4.32;2.47;;;;;;;;;;10380552;28;20032;-84
2023/07/01 10:03:23;;;;;;;3.35;2.33;;;;;;;;;;10385723;28;20037;-84
2023/07/01 10:08:24;;;;;;;3.25;2.10;;;;;;;;;;10387054;28;20049;-84
2023/07/01 10:13:28;;;;;;;3.20;2.60;;;;;;;;;;10381008;28;20133;-84
2023/07/01 10:18:30;;;;;;;3.92;2.10;;;;;;;;;;10402170;28;20050;-85
2023/07/01 10:23:45;;;;;;;3.17;2.28;;;;;;;;;;10390350;28;20053;-85
2023/07/01 10:28:46;;;;;;;2.67;1.95;;;;;;;;;;10403030;28;20180;-85
2023/07/01 10:33:47;;;;;;;2.80;2.20;;;;;;;;;;10384999;28;20040;-85
2023/07/01 10:38:48;;;;;;;3.40;2.00;;;;;;;;;;10391510;28;20395;-84
2023/07/01 10:43:49;;;;;;;2.40;1.70;;;;;;;;;;10387514;28;20026;-86
2023/07/01 10:49:03;;;;;;;2.35;1.60;;;;;;;;;;10386448;28;20033;-86
2023/07/01 10:54:07;;;;;;;2.97;2.15;;;;;;;;;;10394386;28;20041;-85
2023/07/01 10:59:17;;;;;;;3.88;2.53;;;;;;;;;;10398852;28;20375;-84
2023/07/01 11:04:18;;;;;;;;;;;;;;;;;;10407073;28;20128;-85
2023/07/01 11:09:32;;;;;;;2.50;2.00;;;;;;;;;;10408364;28;19904;-85
2023/07/01 11:14:34;;;;;;;2.20;1.77;;;;;;;;;;10399653;28;20076;-85
2023/07/01 11:19:35;;;;;;;2.55;1.98;;;;;;;;;;10389242;28;20036;-85
2023/07/01 11:24:37;;;;;;;2.40;1.88;;;;;;;;;;10387327;28;20057;-85
2023/07/01 11:29:41;;;;;;;3.10;1.65;;;;;;;;;;10385548;28;20026;-85
2023/07/01 11:34:45;;;;;;;4.43;2.13;;;;;;;;;;10401689;28;20081;-85
2023/07/01 11:39:46;;;;;;;3.22;1.60;;;;;;;;;;10403310;28;20386;-83
2023/07/01 11:44:47;;;;;;;4.50;2.05;;;;;;;;;;10384609;28;20041;-84
2023/07/01 11:49:48;;;;;;;1.98;1.50;;;;;;;;;;10379837;28;20034;-82
2023/07/01 11:54:51;;;;;;;1.85;1.40;;;;;;;;;;10373448;28;20029;-85
2023/07/01 12:00:01;;;;;;;1.88;1.23;;;;;;;;;;10370876;28;20046;-86
2023/07/01 12:05:03;;;;;;;6.18;4.55;;;;;;;;;;10517597;23;20032;-81
2023/07/01 12:10:17;;;;;;;2.22;1.60;;;;;;;;;;10515460;28;20027;-82
2023/07/01 12:15:19;;;;;;;2.83;1.90;;;;;;;;;;10469828;28;20475;-81
2023/07/01 12:20:21;;;;;;;2.42;1.50;;;;;;;;;;10450132;28;20025;-80
2023/07/01 12:25:25;;;;;;;2.20;1.50;;;;;;;;;;10481678;28;20123;-80
2023/07/01 12:30:26;;;;;;;1.58;1.40;;;;;;;;;;10484687;28;20490;-81
2023/07/01 12:35:27;;;;;;;4.22;1.92;;;;;;;;;;10475105;28;20025;-81
2023/07/01 12:40:28;;;;;;;2.75;1.80;;;;;;;;;;10456153;28;20116;-81
2023/07/01 12:45:29;;;;;;;2.50;1.85;;;;;;;;;;10456843;28;20455;-82
2023/07/01 12:50:31;;;;;;;1.92;1.50;;;;;;;;;;10455968;28;20021;-81
2023/07/01 12:55:32;;;;;;;3.63;1.50;;;;;;;;;;10454274;28;20025;-83
2023/07/01 13:00:33;;;;;;;2.08;1.30;;;;;;;;;;10457051;28;20025;-82
2023/07/01 13:05:34;;;;;;;3.08;1.70;;;;;;;;;;10449599;28;20112;-81
2023/07/01 13:10:40;;;;;;;1.90;1.60;;;;;;;;;;10446434;28;20402;-80
2023/07/01 13:15:53;;;;;;;2.45;1.92;;;;;;;;;;10445157;28;20085;-81
2023/07/01 13:20:54;;;;;;;1.85;1.30;;;;;;;;;;10447512;28;20005;-80
2023/07/01 13:25:55;;;;;;;2.22;2.00;;;;;;;;;;10448654;28;20036;-82
2023/07/01 13:30:56;;;;;;;3.15;2.50;;;;;;;;;;10448781;28;20079;-82
2023/07/01 13:36:00;;;;;;;2.92;2.47;;;;;;;;;;10450151;28;20120;-82
2023/07/01 13:41:01;;;;;;;2.30;2.00;;;;;;;;;;10451226;28;20021;-82
2023/07/01 13:46:02;;;;;;;4.82;2.75;;;;;;;;;;10470799;28;20021;-81
2023/07/01 13:51:03;;;;;;;3.40;2.70;;;;;;;;;;10452618;28;20061;-82
2023/07/01 13:56:04;;;;;;;6.13;3.00;;;;;;;;;;10467633;28;20028;-82
2023/07/01 14:01:05;;;;;;;4.00;1.95;;;;;;;;;;10467948;28;20102;-82
2023/07/01 14:06:06;;;;;;;2.53;1.70;;;;;;;;;;10449971;28;20593;-82
2023/07/01 14:11:08;;;;;;;2.58;1.58;;;;;;;;;;10455761;28;20120;-81
2023/07/01 14:16:09;;;;;;;1.48;1.38;;;;;;;;;;10459745;28;20048;-81
2023/07/01 14:21:12;;;;;;;2.83;1.30;;;;;;;;;;10456382;28;20025;-81
2023/07/01 14:26:25;;;;;;;1.60;1.50;;;;;;;;;;10457384;28;20111;-81
2023/07/01 14:31:32;;;;;;;1.70;1.30;;;;;;;;;;10473054;28;20475;-81
2023/07/01 14:36:39;;;;;;;1.70;1.42;;;;;;;;;;10453290;28;20025;-81
2023/07/01 14:41:41;;;;;;;3.00;1.55;;;;;;;;;;10453252;28;20024;-81
2023/07/01 14:46:42;;;;;;;2.10;1.55;;;;;;;;;;10452863;28;20487;-81
2023/07/01 14:51:43;;;;;;;1.40;1.30;;;;;;;;;;10453914;28;20031;-81
2023/07/01 14:56:46;;;;;;;1.45;1.20;;;;;;;;;;10456149;28;20097;-81
2023/07/01 15:01:47;;;;;;;5.47;2.20;;;;;;;;;;10456135;28;20079;-81
2023/07/01 15:06:48;;;;;;;1.70;1.30;;;;;;;;;;10470846;28;20059;-81
2023/07/01 15:11:49;;;;;;;1.70;1.50;;;;;;;;;;10471020;28;20092;-81
2023/07/01 15:16:50;;;;;;;3.63;1.60;;;;;;;;;;10454696;28;20025;-82
2023/07/01 15:21:51;;;;;;;3.20;2.30;;;;;;;;;;10452717;28;20040;-82
2023/07/01 15:26:52;;;;;;;5.07;2.50;;;;;;;;;;10454240;28;20056;-81
2023/07/01 15:31:53;;;;;;;4.65;2.50;;;;;;;;;;10452836;28;20029;-81
2023/07/01 15:36:54;;;;;;;2.42;2.22;;;;;;;;;;10454479;28;20112;-81
2023/07/01 15:41:55;;;;;;;3.13;2.67;;;;;;;;;;10453651;28;20116;-81
2023/07/01 15:46:56;;;;;;;2.33;2.00;;;;;;;;;;10473535;28;20028;-81
2023/07/01 15:51:57;;;;;;;2.78;2.22;;;;;;;;;;10454717;28;20029;-81
2023/07/01 15:56:58;;;;;;;2.22;1.98;;;;;;;;;;10471121;28;20063;-82
2023/07/01 16:02:05;;;;;;;2.65;1.50;;;;;;;;;;10473159;28;20119;-82
2023/07/01 16:07:12;;;;;;;1.88;1.50;;;;;;;;;;10451839;28;20024;-80
2023/07/01 16:12:16;;;;;;;2.75;1.60;;;;;;;;;;10450504;28;20025;-80
2023/07/01 16:17:17;;;;;;;2.33;1.50;;;;;;;;;;10460464;28;20017;-82
2023/07/01 16:22:21;;;;;;;1.58;1.45;;;;;;;;;;10461054;28;20029;-82
2023/07/01 16:27:26;;;;;;;1.67;1.30;;;;;;;;;;10459778;28;20092;-82
2023/07/01 16:32:27;;;;;;;1.92;1.30;;;;;;;;;;10466767;28;20025;-80
2023/07/01 16:37:29;;;;;;;1.50;1.40;;;;;;;;;;10468583;28;20054;-81
2023/07/01 16:42:36;;;;;;;2.75;2.15;;;;;;;;;;10481954;28;20021;-80
2023/07/01 16:47:37;;;;;;;2.97;1.98;;;;;;;;;;10464594;28;20032;-83
2023/07/01 16:52:38;;;;;;;2.42;1.85;;;;;;;;;;10455445;28;20100;-81
2023/07/01 16:57:39;;;;;;;2.15;1.55;;;;;;;;;;10473015;28;20029;-82
2023/07/01 17:02:40;;;;;;;3.70;2.20;;;;;;;;;;10452712;28;20064;-82
2023/07/01 17:07:42;;;;;;;2.95;2.15;;;;;;;;;;10450552;28;20036;-81
2023/07/01 17:12:44;;;;;;;2.53;2.00;;;;;;;;;;10453542;28;20032;-82
2023/07/01 17:17:45;;;;;;;3.33;2.00;;;;;;;;;;10447238;28;20025;-82
2023/07/01 17:22:46;;;;;;;3.05;2.00;;;;;;;;;;10446339;28;20086;-81
2023/07/01 17:27:47;;;;;;;4.30;1.90;;;;;;;;;;10464899;28;20423;-80
2023/07/01 17:32:48;;;;;;;4.03;2.40;;;;;;;;;;10466971;28;20483;-81
2023/07/01 17:37:50;;;;;;;4.97;2.40;;;;;;;;;;10466548;28;20474;-81
2023/07/01 17:42:52;;;;;;;2.85;2.30;;;;;;;;;;10450205;28;20052;-81
2023/07/01 17:47:53;;;;;;;3.80;2.50;;;;;;;;;;10453103;28;20498;-81
2023/07/01 17:52:54;;;;;;;3.47;2.38;;;;;;;;;;10451779;28;20025;-81
2023/07/01 17:57:56;;;;;;;5.63;3.28;;;;;;;;;;10453401;28;20025;-82
2023/07/01 18:09:08;;;;;;;4.75;2.40;;;;;;;;;;10372074;28;20063;-87
2023/07/01 18:14:46;;;;;;;3.40;2.20;;;;;;;;;;10369845;28;20045;-86
2023/07/01 18:19:49;;;;;;;2.03;1.80;;;;;;;;;;10350900;28;20045;-86
2023/07/01 18:24:51;;;;;;;2.35;1.73;;;;;;;;;;10357264;28;20054;-86
2023/07/01 18:29:53;;;;;;;3.00;2.10;;;;;;;;;;10437668;28;20067;-86
2023/07/01 18:35:19;;;;;;;1.92;1.73;;;;;;;;;;10498272;28;20048;-86
2023/07/01 18:40:21;;;;;;;2.22;1.60;;;;;;;;;;10443072;28;20044;-86
2023/07/01 18:45:22;;;;;;;3.13;1.85;;;;;;;;;;10442538;28;20074;-86
2023/07/01 18:50:28;;;;;;;2.55;1.70;;;;;;;;;;10440508;28;20164;-86
2023/07/01 18:55:30;;;;;;;3.20;1.70;;;;;;;;;;10461867;28;20025;-86
2023/07/01 19:00:57;;;;;;;1.80;1.60;;;;;;;;;;10446026;28;20093;-86
2023/07/01 19:06:02;;;;;;;3.10;1.90;;;;;;;;;;10445719;28;20041;-86
2023/07/01 19:11:04;;;;;;;2.33;1.77;;;;;;;;;;10446884;28;20112;-86
